»·PEaware :: N799DS KVNY-KLGB

N799DS :: KVNY-KLGB

FLIGHT INFORMATION

Flight Status: Arrived
Operator: Privately registered:
United States
More flights under this callsign
Pilot: Wolfgang B. (15069)
Aircraft: CESSNA 172 SKYHAWK
(C172)
More flights by this aircraft type
Origin: KVNY Van Nuys
United States
Destination: KLGB Long Beach
United States
More flights between these airports :: More routes between these airports
Route: ADAMM3 ADAMM V394 SLI
File this flight plan on PilotEdge
Remarks:
Altitude:
(Current/Filed)
5,000ft
Speed:
(Current/Filed)
120kts
Departed: 17-Mar-20 03:01 PM
Arrived: 17-Mar-20 03:39 PM
Distance/Time
Traveled:
29nm/0:38
Distance/Time
To Go:
Arrived

Flight Plot

Page will automatically refresh every two minutes.

Flight plan parsing failed; only flown route is shown


Map Options




Map Legend


Flown Route
Filed Route
Departure Airport
Arrival Airport
Navaid (VOR, NDB)
Fix

Horizontal Profiles

Position Reports

Time Latitude Longitude Heading Altitude Ground
Speed
17-Mar-20 14:47 34.217319 -118.493000 86 806ft 0kts
17-Mar-20 14:48 34.217319 -118.493000 86 806ft 0kts
17-Mar-20 14:49 34.217319 -118.493000 86 806ft 0kts
17-Mar-20 14:50 34.217319 -118.493000 86 806ft 0kts
17-Mar-20 14:51 34.217319 -118.493000 86 806ft 0kts
17-Mar-20 14:52 34.217319 -118.493000 86 806ft 0kts
17-Mar-20 14:53 34.217319 -118.493000 86 806ft 0kts
17-Mar-20 14:54 34.217319 -118.493000 86 806ft 0kts
17-Mar-20 14:55 34.217319 -118.493000 86 806ft 0kts
17-Mar-20 14:56 34.217319 -118.493000 86 806ft 0kts
17-Mar-20 14:57 34.218585 -118.492270 34 806ft 0kts
17-Mar-20 14:58 34.218585 -118.492271 34 806ft 0kts
17-Mar-20 14:59 34.217694 -118.491126 173 806ft 24kts
17-Mar-20 15:00 34.197695 -118.489076 175 1471ft 80kts
17-Mar-20 15:01 34.178426 -118.479592 125 2345ft 82kts
17-Mar-20 15:02 34.165665 -118.457870 124 3159ft 82kts
17-Mar-20 15:03 34.156691 -118.434266 96 3910ft 82kts
17-Mar-20 15:04 34.153282 -118.409923 102 4565ft 83kts
17-Mar-20 15:05 34.147910 -118.382154 102 4989ft 111kts
17-Mar-20 15:06 34.140423 -118.344133 102 4976ft 128kts
17-Mar-20 15:07 34.132513 -118.304574 102 4974ft 130kts
17-Mar-20 15:08 34.126942 -118.264939 96 4979ft 131kts
17-Mar-20 15:09 34.121540 -118.224966 104 4985ft 132kts
17-Mar-20 15:10 34.109584 -118.183741 111 4992ft 132kts
17-Mar-20 15:11 34.097513 -118.140769 101 4998ft 133kts
17-Mar-20 15:12 34.094981 -118.096418 91 5005ft 132kts
17-Mar-20 15:13 34.089799 -118.054019 111 5006ft 129kts
17-Mar-20 15:14 34.077803 -118.013838 113 5031ft 128kts
17-Mar-20 15:15 34.065440 -117.973622 113 5028ft 130kts
17-Mar-20 15:16 34.052906 -117.932924 113 5025ft 131kts
17-Mar-20 15:17 34.040176 -117.891648 112 5023ft 132kts
17-Mar-20 15:18 34.027523 -117.850677 112 5021ft 132kts
17-Mar-20 15:19 34.003398 -117.826535 190 5021ft 124kts
17-Mar-20 15:20 33.970924 -117.839258 203 5002ft 127kts
17-Mar-20 15:21 33.938671 -117.854775 204 4999ft 127kts
17-Mar-20 15:22 33.906633 -117.870258 203 5000ft 128kts
17-Mar-20 15:23 33.875697 -117.883397 201 4552ft 122kts
17-Mar-20 15:24 33.844673 -117.896237 201 4067ft 121kts
17-Mar-20 15:25 33.814116 -117.908809 201 3585ft 119kts
17-Mar-20 15:26 33.783637 -117.921153 194 3097ft 117kts
17-Mar-20 15:27 33.751901 -117.927410 191 3004ft 120kts
17-Mar-20 15:28 33.719910 -117.933770 191 3003ft 116kts
17-Mar-20 15:29 33.687817 -117.940137 191 3004ft 116kts
17-Mar-20 15:30 33.681371 -117.968306 296 3005ft 121kts
17-Mar-20 15:31 33.696225 -118.004359 296 3003ft 121kts
17-Mar-20 15:32 33.718789 -118.031825 309 2613ft 106kts
17-Mar-20 15:33 33.739302 -118.056569 310 2057ft 107kts
17-Mar-20 15:34 33.759499 -118.080931 309 1496ft 105kts
17-Mar-20 15:35 33.778918 -118.104375 310 956ft 104kts
17-Mar-20 15:36 33.794405 -118.123088 309 532ft 73kts
17-Mar-20 15:37 33.806549 -118.137757 310 200ft 68kts
17-Mar-20 15:38 33.816130 -118.149279 315 38ft 26kts
17-Mar-20 15:39 33.817949 -118.153486 130 43ft 16kts
17-Mar-20 15:40 33.814617 -118.149366 133 37ft 1kts
17-Mar-20 15:41 33.812920 -118.154834 230 43ft 35kts

Navigation Log

Ident Type
Flight plan parsing failed, navigation log unavailable